createdAt,value
2019-02-02T00:02:31.232Z,108.23
2019-02-02T00:05:34.397Z,105.40
2019-02-02T00:08:37.458Z,122.63
2019-02-02T00:11:40.555Z,115.43
2019-02-02T00:14:45.260Z,108.30
2019-02-02T00:17:48.658Z,112.63
2019-02-02T00:20:51.991Z,116.57
2019-02-02T00:23:55.174Z,116.40
2019-02-02T00:26:59.519Z,121.60
2019-02-02T00:30:04.272Z,147.57
2019-02-02T00:33:07.566Z,122.30
2019-02-02T00:36:10.616Z,123.53
2019-02-02T00:39:15.762Z,139.43
2019-02-02T00:42:18.950Z,128.40
2019-02-02T00:45:22.318Z,132.07
2019-02-02T00:48:44.439Z,135.33
2019-02-02T00:52:11.022Z,134.87
2019-02-02T00:55:45.768Z,143.30
2019-02-02T00:59:34.575Z,146.57
2019-02-02T01:04:24.937Z,142.27
2019-02-02T01:08:10.443Z,142.20
2019-02-02T01:12:07.710Z,147.13
2019-02-02T01:20:05.809Z,140.50
2019-02-02T01:23:51.817Z,144.07
2019-02-02T01:27:36.266Z,146.50
2019-02-02T01:30:39.395Z,148.80
2019-02-02T01:34:04.974Z,146.60
2019-02-02T01:37:37.866Z,144.53
2019-02-02T01:45:09.031Z,146.07
2019-02-02T01:48:41.362Z,153.53
2019-02-02T01:52:08.526Z,161.87
2019-02-02T01:55:35.355Z,160.87
2019-02-02T01:58:41.474Z,151.37
2019-02-02T02:02:00.251Z,146.80
2019-02-02T02:05:48.486Z,165.83
2019-02-02T02:09:10.897Z,152.23
2019-02-02T02:12:51.639Z,163.27
2019-02-02T02:17:03.951Z,163.60
2019-02-02T02:20:45.274Z,167.40
2019-02-02T02:24:35.498Z,165.00
2019-02-02T02:28:13.114Z,160.00
2019-02-02T02:31:36.538Z,165.50
2019-02-02T02:34:42.479Z,166.03
2019-02-02T02:37:54.662Z,174.70
2019-02-02T02:41:05.908Z,163.33
2019-02-02T02:44:11.359Z,176.93
2019-02-02T02:47:41.115Z,167.43
2019-02-02T02:51:06.849Z,176.63
2019-02-02T02:54:42.492Z,183.07
2019-02-02T02:58:24.230Z,182.63
2019-02-02T03:02:09.170Z,171.23
2019-02-02T03:05:24.111Z,166.53
2019-02-02T03:08:27.328Z,173.13
2019-02-02T03:11:47.518Z,178.87
2019-02-02T03:18:38.354Z,177.67
2019-02-02T03:21:52.454Z,172.17
2019-02-02T03:25:30.119Z,177.57
2019-02-02T03:28:53.788Z,180.53
2019-02-02T03:31:57.080Z,174.30
2019-02-02T03:35:23.926Z,186.77
2019-02-02T03:42:17.311Z,184.53
2019-02-02T03:49:38.099Z,178.80
2019-02-02T03:53:11.958Z,185.67
2019-02-02T03:56:27.466Z,183.03
2019-02-02T04:00:12.362Z,182.93
2019-02-02T04:03:53.402Z,180.20
2019-02-02T04:07:17.730Z,188.73
2019-02-02T04:11:22.990Z,178.03
2019-02-02T04:15:02.526Z,168.23
2019-02-02T04:18:43.776Z,173.87
2019-02-02T04:35:31.854Z,181.43
2019-02-02T04:52:50.770Z,175.53
2019-02-02T05:05:49.238Z,181.77
2019-02-02T05:26:55.443Z,167.97
2019-02-02T06:06:51.947Z,169.33
2019-02-02T06:37:39.918Z,167.23
2019-02-02T06:59:23.938Z,175.27
2019-02-02T07:02:45.318Z,166.33
2019-02-02T07:38:24.807Z,582.53
2019-02-02T07:46:13.853Z,203.17
2019-02-02T07:49:07.953Z,229.00
2019-02-02T07:52:11.154Z,202.57
2019-02-02T07:55:15.334Z,206.17
2019-02-02T07:58:18.461Z,217.80
2019-02-02T08:01:21.592Z,184.87
2019-02-02T08:04:24.652Z,193.00
2019-02-02T08:07:27.738Z,212.63
2019-02-02T08:10:30.838Z,186.23
2019-02-02T08:13:34.454Z,187.73
2019-02-02T08:16:37.635Z,188.50
2019-02-02T08:19:40.722Z,191.13
2019-02-02T08:22:44.026Z,204.07
2019-02-02T08:25:47.187Z,194.53
2019-02-02T08:28:50.315Z,192.03
2019-02-02T08:31:53.397Z,174.03
2019-02-02T08:34:56.600Z,224.57
2019-02-02T08:37:59.792Z,199.27
2019-02-02T08:41:02.886Z,181.17
2019-02-02T08:44:05.982Z,193.90
2019-02-02T08:47:09.070Z,178.87
2019-02-02T08:50:23.426Z,179.93
2019-02-02T08:53:26.612Z,187.47
2019-02-02T08:56:29.611Z,187.83
2019-02-02T08:59:33.803Z,208.83
2019-02-02T09:02:36.973Z,222.77
2019-02-02T09:05:40.120Z,186.50
2019-02-02T09:08:43.182Z,179.73
2019-02-02T09:11:48.767Z,170.57
2019-02-02T09:14:51.315Z,169.53
2019-02-02T09:17:54.575Z,173.57
2019-02-02T09:20:57.703Z,174.10
2019-02-02T09:24:00.838Z,166.63
2019-02-02T09:27:04.090Z,146.70
2019-02-02T09:30:15.401Z,171.83
2019-02-02T09:33:18.753Z,166.90
2019-02-02T09:36:32.158Z,150.90
2019-02-02T09:39:35.306Z,157.37
2019-02-02T09:42:38.539Z,140.80
2019-02-02T09:45:41.698Z,140.00
2019-02-02T09:48:44.994Z,145.03
2019-02-02T09:51:48.105Z,157.23
2019-02-02T09:54:51.340Z,148.40
2019-02-02T09:57:56.709Z,160.33
2019-02-02T10:00:59.887Z,158.43
2019-02-02T10:04:03.322Z,161.97
2019-02-02T10:07:06.586Z,155.43
2019-02-02T10:10:13.265Z,145.73
2019-02-02T10:13:18.449Z,148.83
2019-02-02T10:16:21.530Z,147.23
2019-02-02T10:19:24.745Z,158.10
2019-02-02T10:22:27.918Z,149.77
2019-02-02T10:25:31.465Z,145.77
2019-02-02T10:28:34.618Z,156.37
2019-02-02T10:31:40.456Z,153.33
2019-02-02T10:34:52.254Z,149.33
2019-02-02T10:37:59.091Z,148.87
2019-02-02T10:41:02.151Z,153.20
2019-02-02T10:44:05.479Z,157.97
2019-02-02T10:47:08.642Z,178.20
2019-02-02T10:50:12.866Z,162.43
2019-02-02T10:53:16.974Z,170.80
2019-02-02T10:56:20.112Z,179.13
2019-02-02T10:59:23.265Z,170.97
2019-02-02T11:02:26.466Z,171.87
2019-02-02T11:05:29.685Z,153.03
2019-02-02T11:08:32.997Z,177.87
2019-02-02T11:11:36.044Z,182.80
2019-02-02T11:14:39.259Z,179.20
2019-02-02T11:17:42.349Z,182.17
2019-02-02T11:20:45.490Z,175.20
2019-02-02T11:23:48.897Z,178.23
2019-02-02T11:26:52.188Z,177.07
2019-02-02T11:29:55.246Z,177.83
2019-02-02T11:32:58.311Z,190.73
2019-02-02T11:36:02.523Z,197.20
2019-02-02T11:39:06.339Z,185.60
2019-02-02T11:42:09.651Z,164.60
2019-02-02T11:45:12.930Z,177.13
2019-02-02T11:48:16.126Z,167.93
2019-02-02T11:51:19.325Z,167.33
2019-02-02T11:54:22.519Z,177.40
2019-02-02T11:57:25.611Z,187.40
2019-02-02T12:00:36.994Z,191.50
2019-02-02T12:03:41.554Z,179.13
2019-02-02T12:06:44.610Z,205.83
2019-02-02T12:09:47.787Z,195.67
2019-02-02T12:12:50.978Z,215.60
2019-02-02T12:15:54.178Z,191.53
2019-02-02T12:18:59.090Z,195.50
2019-02-02T12:22:02.330Z,208.53
2019-02-02T12:25:05.730Z,203.13
2019-02-02T12:28:09.293Z,193.63
2019-02-02T12:31:12.631Z,185.37
2019-02-02T12:34:15.730Z,194.70
2019-02-02T12:37:18.817Z,198.13
2019-02-02T12:40:22.626Z,204.50
2019-02-02T12:43:25.719Z,216.47
2019-02-02T12:46:28.818Z,193.57
2019-02-02T12:49:32.014Z,207.30
2019-02-02T12:52:35.202Z,235.13
2019-02-02T12:55:38.402Z,239.07
2019-02-02T12:58:41.731Z,231.80
2019-02-02T13:01:44.894Z,209.40
2019-02-02T13:04:48.127Z,221.13
2019-02-02T13:07:51.277Z,233.30
2019-02-02T13:10:54.510Z,270.83
2019-02-02T13:13:57.570Z,237.33
2019-02-02T13:17:00.706Z,217.67
2019-02-02T13:20:05.160Z,221.50
2019-02-02T13:23:08.419Z,216.10
2019-02-02T13:26:11.554Z,206.53
2019-02-02T13:29:15.126Z,227.30
2019-02-02T13:32:18.374Z,229.93
2019-02-02T13:35:22.145Z,244.07
2019-02-02T13:38:25.278Z,245.67
2019-02-02T13:41:28.520Z,252.07
2019-02-02T13:44:31.774Z,251.63
2019-02-02T13:47:35.117Z,236.37
2019-02-02T13:50:38.307Z,233.67
2019-02-02T13:53:41.402Z,245.53
2019-02-02T13:56:44.550Z,247.37
2019-02-02T13:59:47.722Z,259.80
2019-02-02T14:03:01.412Z,243.80
2019-02-02T14:05:55.898Z,277.43
2019-02-02T14:08:59.151Z,268.57
2019-02-02T14:12:02.377Z,286.63
2019-02-02T14:15:06.286Z,282.10
2019-02-02T14:18:09.510Z,264.77
2019-02-02T14:21:12.574Z,237.67
2019-02-02T14:24:15.704Z,250.40
2019-02-02T14:27:18.754Z,254.23
2019-02-02T14:30:23.719Z,272.90
2019-02-02T14:33:26.787Z,262.40
2019-02-02T14:36:30.946Z,275.43
2019-02-02T14:39:33.995Z,250.33
2019-02-02T14:42:37.237Z,248.57
2019-02-02T14:45:40.363Z,247.57
2019-02-02T14:48:43.519Z,241.57
2019-02-02T14:51:46.670Z,258.03
2019-02-02T14:54:49.838Z,252.70
2019-02-02T14:57:52.962Z,239.87
2019-02-02T15:00:56.126Z,253.80
2019-02-02T15:03:59.276Z,233.20
2019-02-02T15:07:02.574Z,212.63
2019-02-02T15:10:06.442Z,215.93
2019-02-02T15:13:09.582Z,228.73
2019-02-02T15:16:12.738Z,242.60
2019-02-02T15:19:15.958Z,249.43
2019-02-02T15:22:20.256Z,230.37
2019-02-02T15:25:23.446Z,235.77
2019-02-02T15:28:26.746Z,194.40
2019-02-02T15:31:30.046Z,207.63
2019-02-02T15:34:33.441Z,220.93
2019-02-02T15:37:36.535Z,210.70
2019-02-02T15:40:39.750Z,190.97
2019-02-02T15:43:42.822Z,196.70
2019-02-02T15:46:49.176Z,209.57
2019-02-02T15:49:50.855Z,180.07
2019-02-02T15:52:53.942Z,198.97
2019-02-02T15:55:57.038Z,176.50
2019-02-02T15:59:00.130Z,195.73
2019-02-02T16:02:03.227Z,183.23
2019-02-02T16:05:08.939Z,182.57
2019-02-02T16:08:13.674Z,191.47
2019-02-02T16:11:16.798Z,168.80
2019-02-02T16:14:19.999Z,165.30
2019-02-02T16:17:23.166Z,159.23
2019-02-02T16:20:28.602Z,159.43
2019-02-02T16:23:31.736Z,153.63
2019-02-02T16:26:34.930Z,156.37
2019-02-02T16:29:38.118Z,150.13
2019-02-02T16:32:41.322Z,146.60
2019-02-02T16:35:44.488Z,163.37
2019-02-02T16:38:47.609Z,159.23
2019-02-02T16:41:50.794Z,147.30
2019-02-02T16:44:53.994Z,174.30
2019-02-02T16:47:57.194Z,158.50
2019-02-02T16:51:00.434Z,163.43
2019-02-02T16:54:03.583Z,160.47
2019-02-02T16:57:06.710Z,169.53
2019-02-02T17:00:15.774Z,160.47
2019-02-02T17:03:18.971Z,165.70
2019-02-02T17:06:22.094Z,172.07
2019-02-02T17:09:25.333Z,166.47
2019-02-02T17:12:28.379Z,163.33
2019-02-02T17:15:32.672Z,161.90
2019-02-02T17:18:37.166Z,154.50
2019-02-02T17:21:40.362Z,141.67
2019-02-02T17:24:43.420Z,168.77
2019-02-02T17:27:47.078Z,141.53
2019-02-02T17:30:50.218Z,169.83
2019-02-02T17:33:53.341Z,149.30
2019-02-02T17:36:56.398Z,165.50
2019-02-02T17:39:59.646Z,175.73
2019-02-02T17:43:02.688Z,165.83
2019-02-02T17:46:05.919Z,169.97
2019-02-02T17:49:08.978Z,163.63
2019-02-02T17:52:12.115Z,160.67
2019-02-02T17:55:15.265Z,170.60
2019-02-02T17:58:18.394Z,144.43
2019-02-02T18:01:21.558Z,139.23
2019-02-02T18:04:26.618Z,146.13
2019-02-02T18:07:29.687Z,159.60
2019-02-02T18:10:33.036Z,169.20
2019-02-02T18:13:36.178Z,159.33
2019-02-02T18:16:39.719Z,145.07
2019-02-02T18:19:42.770Z,149.17
2019-02-02T18:22:45.998Z,139.03
2019-02-02T18:25:49.163Z,161.40
2019-02-02T18:28:53.935Z,148.87
2019-02-02T18:31:57.087Z,144.50
2019-02-02T18:35:00.219Z,156.90
2019-02-02T18:38:03.578Z,119.30
2019-02-02T18:41:07.178Z,107.97
2019-02-02T18:44:10.385Z,118.10
2019-02-02T18:47:13.551Z,123.37
2019-02-02T18:50:16.670Z,126.00
2019-02-02T18:53:19.976Z,114.50
2019-02-02T18:56:23.158Z,102.73
2019-02-02T18:59:26.295Z,122.40
2019-02-02T19:02:29.346Z,126.70
2019-02-02T19:05:32.687Z,116.50
2019-02-02T19:08:35.952Z,104.40
2019-02-02T19:11:39.212Z,110.50
2019-02-02T19:14:43.562Z,100.53
2019-02-02T19:17:46.910Z,97.87
2019-02-02T19:20:49.950Z,110.57
2019-02-02T19:23:53.353Z,109.07
2019-02-02T19:26:56.442Z,94.97
2019-02-02T19:29:59.538Z,89.23
2019-02-02T19:33:02.626Z,102.87
2019-02-02T19:36:06.689Z,106.57
2019-02-02T19:39:09.839Z,97.67
2019-02-02T19:42:12.933Z,106.43
2019-02-02T19:45:17.526Z,114.30
2019-02-02T19:48:20.656Z,112.77
2019-02-02T19:51:23.846Z,109.47
2019-02-02T19:54:27.046Z,108.03
2019-02-02T19:57:30.443Z,103.57
2019-02-02T20:00:33.617Z,127.20
2019-02-02T20:03:37.754Z,113.93
2019-02-02T20:06:40.850Z,123.97
2019-02-02T20:09:43.938Z,98.70
2019-02-02T20:12:47.259Z,122.50
2019-02-02T20:15:50.326Z,112.10
2019-02-02T20:18:53.538Z,116.07
2019-02-02T20:21:56.722Z,121.57
2019-02-02T20:24:59.813Z,135.83
2019-02-02T20:28:02.901Z,132.73
2019-02-02T20:31:06.000Z,144.07
2019-02-02T20:34:09.190Z,133.67
2019-02-02T20:37:12.289Z,134.63
2019-02-02T20:40:17.085Z,125.10
2019-02-02T20:43:20.218Z,123.80
2019-02-02T20:46:23.307Z,129.80
2019-02-02T20:49:26.534Z,135.27
2019-02-02T20:52:29.806Z,146.17
2019-02-02T20:55:38.050Z,146.93
2019-02-02T20:58:41.209Z,150.47
2019-02-02T21:01:44.958Z,157.23
2019-02-02T21:04:48.126Z,105.57
2019-02-02T21:07:51.263Z,137.63
2019-02-02T21:10:54.625Z,131.50
2019-02-02T21:13:57.765Z,114.23
2019-02-02T21:17:00.811Z,128.37
2019-02-02T21:20:05.954Z,130.37
2019-02-02T21:23:09.146Z,123.00
2019-02-02T21:26:12.381Z,137.20
2019-02-02T21:29:15.534Z,136.37
2019-02-02T21:32:19.086Z,131.80
2019-02-02T21:35:22.537Z,129.13
2019-02-02T21:38:25.671Z,135.73
2019-02-02T21:41:28.831Z,130.57
2019-02-02T21:44:42.574Z,121.73
2019-02-02T21:47:38.806Z,130.37
2019-02-02T21:50:43.728Z,93.37
2019-02-02T21:53:46.934Z,110.00
2019-02-02T21:56:50.090Z,102.83
2019-02-02T21:59:53.527Z,117.43
2019-02-02T22:02:56.695Z,111.40
2019-02-02T22:05:59.902Z,121.47
2019-02-02T22:09:07.027Z,111.30
2019-02-02T22:12:11.329Z,103.97
2019-02-02T22:15:17.566Z,86.10
2019-02-02T22:18:21.782Z,109.77
2019-02-02T22:21:25.253Z,102.07
2019-02-02T22:24:28.306Z,101.50
2019-02-02T22:27:31.653Z,95.37
2019-02-02T22:30:37.105Z,104.73
2019-02-02T22:33:40.292Z,89.03
2019-02-02T22:36:43.351Z,100.30
2019-02-02T22:39:47.596Z,85.80
2019-02-02T22:42:50.750Z,82.03
2019-02-02T22:45:53.995Z,84.13
2019-02-02T22:48:57.143Z,90.50
2019-02-02T22:52:03.031Z,81.87
2019-02-02T22:55:06.673Z,83.53
2019-02-02T22:58:09.839Z,81.27
2019-02-02T23:01:22.443Z,92.03
2019-02-02T23:04:52.590Z,82.07
2019-02-02T23:08:04.957Z,87.67
2019-02-02T23:11:19.902Z,77.20
2019-02-02T23:15:16.570Z,72.80
2019-02-02T23:18:20.079Z,69.57
2019-02-02T23:21:24.869Z,64.57
2019-02-02T23:24:28.123Z,67.70
2019-02-02T23:27:31.195Z,71.97
2019-02-02T23:30:34.291Z,61.67
2019-02-02T23:33:37.494Z,68.43
2019-02-02T23:36:50.905Z,65.87
2019-02-02T23:39:45.614Z,60.53
2019-02-02T23:42:48.710Z,71.77
2019-02-02T23:45:51.907Z,70.80
2019-02-02T23:48:55.075Z,63.83
2019-02-02T23:51:58.197Z,57.43
2019-02-02T23:55:01.407Z,55.07
2019-02-02T23:58:04.578Z,71.93
